sensor_id;sensor_type;location;lat;lon;timestamp;pressure;altitude;pressure_sealevel;temperature;humidity
73566;BME280;61846;52.970;-3.168;2022-09-09T00:01:49;99389.27;;;19.28;45.34
73566;BME280;61846;52.970;-3.168;2022-09-09T00:04:13;99393.23;;;19.62;44.71
73566;BME280;61846;52.970;-3.168;2022-09-09T00:06:42;99395.22;;;19.59;44.78
73566;BME280;61846;52.970;-3.168;2022-09-09T00:09:02;99398.04;;;19.90;45.06
73566;BME280;61846;52.970;-3.168;2022-09-09T00:11:28;99400.04;;;18.88;46.02
73566;BME280;61846;52.970;-3.168;2022-09-09T00:13:52;99400.97;;;18.92;46.16
73566;BME280;61846;52.970;-3.168;2022-09-09T00:16:19;99402.19;;;19.01;45.71
73566;BME280;61846;52.970;-3.168;2022-09-09T00:18:48;99400.63;;;18.92;46.03
73566;BME280;61846;52.970;-3.168;2022-09-09T00:21:06;99400.46;;;18.86;46.32
73566;BME280;61846;52.970;-3.168;2022-09-09T00:23:33;99400.55;;;18.88;46.16
73566;BME280;61846;52.970;-3.168;2022-09-09T00:26:03;99401.28;;;19.64;45.04
73566;BME280;61846;52.970;-3.168;2022-09-09T00:28:24;99404.48;;;19.34;45.20
73566;BME280;61846;52.970;-3.168;2022-09-09T00:30:46;99405.70;;;19.41;45.08
73566;BME280;61846;52.970;-3.168;2022-09-09T00:33:12;99412.48;;;19.12;45.61
73566;BME280;61846;52.970;-3.168;2022-09-09T00:35:39;99412.19;;;18.98;45.97
73566;BME280;61846;52.970;-3.168;2022-09-09T00:38:09;99414.15;;;19.06;45.79
73566;BME280;61846;52.970;-3.168;2022-09-09T00:40:32;99413.58;;;18.90;45.98
73566;BME280;61846;52.970;-3.168;2022-09-09T00:43:02;99413.39;;;19.25;45.44
73566;BME280;61846;52.970;-3.168;2022-09-09T00:45:38;99411.76;;;18.78;46.25
73566;BME280;61846;52.970;-3.168;2022-09-09T00:47:46;99410.74;;;19.06;45.85
73566;BME280;61846;52.970;-3.168;2022-09-09T00:50:22;99407.22;;;18.91;46.05
73566;BME280;61846;52.970;-3.168;2022-09-09T00:52:44;99405.83;;;18.79;46.09
73566;BME280;61846;52.970;-3.168;2022-09-09T00:55:07;99402.26;;;19.32;45.44
73566;BME280;61846;52.970;-3.168;2022-09-09T00:57:27;99404.35;;;19.67;44.84
73566;BME280;61846;52.970;-3.168;2022-09-09T00:59:52;99403.46;;;19.59;44.87
73566;BME280;61846;52.970;-3.168;2022-09-09T01:02:26;99405.67;;;19.43;44.76
73566;BME280;61846;52.970;-3.168;2022-09-09T01:04:41;99409.28;;;20.05;44.04
73566;BME280;61846;52.970;-3.168;2022-09-09T01:07:14;99407.31;;;19.42;44.46
73566;BME280;61846;52.970;-3.168;2022-09-09T01:09:38;99407.62;;;19.84;44.23
73566;BME280;61846;52.970;-3.168;2022-09-09T01:12:02;99406.61;;;19.92;43.95
73566;BME280;61846;52.970;-3.168;2022-09-09T01:14:32;99410.15;;;20.16;43.34
73566;BME280;61846;52.970;-3.168;2022-09-09T01:16:48;99413.13;;;19.65;43.60
73566;BME280;61846;52.970;-3.168;2022-09-09T01:19:19;99414.14;;;19.81;43.49
73566;BME280;61846;52.970;-3.168;2022-09-09T01:21:43;99419.77;;;19.65;43.81
73566;BME280;61846;52.970;-3.168;2022-09-09T01:24:14;99421.43;;;19.89;43.40
73566;BME280;61846;52.970;-3.168;2022-09-09T01:26:31;99423.77;;;20.10;43.40
73566;BME280;61846;52.970;-3.168;2022-09-09T01:28:54;99425.63;;;19.65;43.73
73566;BME280;61846;52.970;-3.168;2022-09-09T01:31:23;99426.17;;;19.85;43.29
73566;BME280;61846;52.970;-3.168;2022-09-09T01:33:46;99424.52;;;19.83;43.37
73566;BME280;61846;52.970;-3.168;2022-09-09T01:36:14;99426.61;;;19.42;43.60
73566;BME280;61846;52.970;-3.168;2022-09-09T01:38:36;99424.59;;;19.65;43.33
73566;BME280;61846;52.970;-3.168;2022-09-09T01:41:02;99425.83;;;19.11;44.51
73566;BME280;61846;52.970;-3.168;2022-09-09T01:43:28;99424.62;;;19.53;44.01
73566;BME280;61846;52.970;-3.168;2022-09-09T01:45:54;99423.86;;;19.75;43.65
73566;BME280;61846;52.970;-3.168;2022-09-09T01:48:18;99423.35;;;19.79;43.48
73566;BME280;61846;52.970;-3.168;2022-09-09T01:50:43;99422.62;;;19.13;44.64
73566;BME280;61846;52.970;-3.168;2022-09-09T01:53:09;99417.65;;;19.61;44.27
73566;BME280;61846;52.970;-3.168;2022-09-09T01:55:39;99417.68;;;19.69;44.09
73566;BME280;61846;52.970;-3.168;2022-09-09T01:58:11;99420.79;;;19.53;44.27
73566;BME280;61846;52.970;-3.168;2022-09-09T02:00:25;99421.65;;;19.61;44.16
73566;BME280;61846;52.970;-3.168;2022-09-09T02:02:58;99417.29;;;19.74;43.95
73566;BME280;61846;52.970;-3.168;2022-09-09T02:05:25;99417.53;;;19.68;44.15
73566;BME280;61846;52.970;-3.168;2022-09-09T02:07:42;99418.97;;;19.38;44.65
73566;BME280;61846;52.970;-3.168;2022-09-09T02:10:10;99414.18;;;19.50;44.72
73566;BME280;61846;52.970;-3.168;2022-09-09T02:12:32;99421.40;;;19.22;44.92
73566;BME280;61846;52.970;-3.168;2022-09-09T02:15:03;99419.74;;;19.60;44.41
73566;BME280;61846;52.970;-3.168;2022-09-09T02:17:26;99421.59;;;19.69;44.24
73566;BME280;61846;52.970;-3.168;2022-09-09T02:19:51;99424.02;;;19.51;44.43
73566;BME280;61846;52.970;-3.168;2022-09-09T02:22:14;99425.19;;;19.58;44.59
73566;BME280;61846;52.970;-3.168;2022-09-09T02:24:39;99427.97;;;19.91;44.01
73566;BME280;61846;52.970;-3.168;2022-09-09T02:27:06;99431.06;;;19.72;43.86
73566;BME280;61846;52.970;-3.168;2022-09-09T02:29:34;99430.86;;;20.06;43.76
73566;BME280;61846;52.970;-3.168;2022-09-09T02:31:56;99429.51;;;19.76;44.25
73566;BME280;61846;52.970;-3.168;2022-09-09T02:34:21;99431.95;;;19.54;44.66
73566;BME280;61846;52.970;-3.168;2022-09-09T02:36:47;99428.22;;;19.83;44.27
73566;BME280;61846;52.970;-3.168;2022-09-09T02:39:11;99431.52;;;19.97;44.21
73566;BME280;61846;52.970;-3.168;2022-09-09T02:41:38;99432.14;;;20.18;43.86
73566;BME280;61846;52.970;-3.168;2022-09-09T02:44:05;99432.58;;;19.70;43.85
73566;BME280;61846;52.970;-3.168;2022-09-09T02:46:40;99432.43;;;20.25;43.64
73566;BME280;61846;52.970;-3.168;2022-09-09T02:48:59;99431.21;;;20.24;43.82
73566;BME280;61846;52.970;-3.168;2022-09-09T02:51:23;99431.09;;;20.23;43.82
73566;BME280;61846;52.970;-3.168;2022-09-09T02:53:49;99430.89;;;20.10;44.14
73566;BME280;61846;52.970;-3.168;2022-09-09T02:56:13;99435.39;;;19.60;44.80
73566;BME280;61846;52.970;-3.168;2022-09-09T02:58:34;99436.26;;;19.95;44.35
73566;BME280;61846;52.970;-3.168;2022-09-09T03:00:59;99438.19;;;19.97;43.93
73566;BME280;61846;52.970;-3.168;2022-09-09T03:03:24;99438.51;;;20.24;44.00
73566;BME280;61846;52.970;-3.168;2022-09-09T03:05:49;99439.76;;;19.76;44.45
73566;BME280;61846;52.970;-3.168;2022-09-09T03:08:15;99442.41;;;20.06;44.72
73566;BME280;61846;52.970;-3.168;2022-09-09T03:10:40;99442.72;;;19.94;44.78
73566;BME280;61846;52.970;-3.168;2022-09-09T03:13:06;99439.17;;;20.06;44.20
73566;BME280;61846;52.970;-3.168;2022-09-09T03:15:32;99433.18;;;20.08;44.26
73566;BME280;61846;52.970;-3.168;2022-09-09T03:17:57;99430.42;;;19.94;44.23
73566;BME280;61846;52.970;-3.168;2022-09-09T03:20:22;99431.35;;;20.26;44.06
73566;BME280;61846;52.970;-3.168;2022-09-09T03:22:47;99430.76;;;19.79;44.51
73566;BME280;61846;52.970;-3.168;2022-09-09T03:25:13;99433.41;;;20.10;44.43
73566;BME280;61846;52.970;-3.168;2022-09-09T03:27:38;99434.22;;;19.54;45.22
73566;BME280;61846;52.970;-3.168;2022-09-09T03:30:05;99436.07;;;19.10;45.92
73566;BME280;61846;52.970;-3.168;2022-09-09T03:32:29;99438.59;;;19.47;45.42
73566;BME280;61846;52.970;-3.168;2022-09-09T03:34:54;99438.99;;;19.56;45.60
73566;BME280;61846;52.970;-3.168;2022-09-09T03:37:20;99438.77;;;19.61;45.19
73566;BME280;61846;52.970;-3.168;2022-09-09T03:39:45;99439.70;;;20.21;44.66
73566;BME280;61846;52.970;-3.168;2022-09-09T03:42:12;99444.09;;;20.13;44.74
73566;BME280;61846;52.970;-3.168;2022-09-09T03:44:36;99444.12;;;20.20;44.78
73566;BME280;61846;52.970;-3.168;2022-09-09T03:47:01;99446.24;;;20.22;44.59
73566;BME280;61846;52.970;-3.168;2022-09-09T03:49:28;99448.17;;;19.85;44.47
73566;BME280;61846;52.970;-3.168;2022-09-09T03:51:52;99448.88;;;19.97;44.95
73566;BME280;61846;52.970;-3.168;2022-09-09T03:54:17;99446.74;;;20.22;44.69
73566;BME280;61846;52.970;-3.168;2022-09-09T03:56:44;99450.04;;;19.80;44.74
73566;BME280;61846;52.970;-3.168;2022-09-09T03:59:09;99451.73;;;20.19;44.20
73566;BME280;61846;52.970;-3.168;2022-09-09T04:01:35;99454.82;;;19.71;44.57
73566;BME280;61846;52.970;-3.168;2022-09-09T04:04:00;99456.55;;;20.13;44.69
73566;BME280;61846;52.970;-3.168;2022-09-09T04:06:26;99456.05;;;20.17;44.44
73566;BME280;61846;52.970;-3.168;2022-09-09T04:08:51;99454.90;;;19.98;44.38
73566;BME280;61846;52.970;-3.168;2022-09-09T04:11:16;99456.72;;;20.13;44.20
73566;BME280;61846;52.970;-3.168;2022-09-09T04:13:41;99456.08;;;19.83;44.28
73566;BME280;61846;52.970;-3.168;2022-09-09T04:16:08;99455.74;;;19.56;44.55
73566;BME280;61846;52.970;-3.168;2022-09-09T04:18:32;99455.51;;;20.06;44.46
73566;BME280;61846;52.970;-3.168;2022-09-09T04:20:58;99458.81;;;19.83;44.57
73566;BME280;61846;52.970;-3.168;2022-09-09T04:23:23;99459.96;;;19.75;45.25
73566;BME280;61846;52.970;-3.168;2022-09-09T04:25:50;99457.91;;;19.61;44.78
73566;BME280;61846;52.970;-3.168;2022-09-09T04:28:14;99455.56;;;19.54;44.84
73566;BME280;61846;52.970;-3.168;2022-09-09T04:30:39;99459.60;;;19.34;45.01
73566;BME280;61846;52.970;-3.168;2022-09-09T04:33:04;99453.85;;;19.48;44.95
73566;BME280;61846;52.970;-3.168;2022-09-09T04:35:29;99453.99;;;19.85;45.15
73566;BME280;61846;52.970;-3.168;2022-09-09T04:37:55;99456.73;;;18.85;46.47
73566;BME280;61846;52.970;-3.168;2022-09-09T04:40:20;99457.13;;;19.06;45.61
73566;BME280;61846;52.970;-3.168;2022-09-09T04:42:46;99457.18;;;19.49;45.41
73566;BME280;61846;52.970;-3.168;2022-09-09T04:45:11;99454.44;;;19.59;45.13
73566;BME280;61846;52.970;-3.168;2022-09-09T04:47:36;99454.37;;;19.08;46.00
73566;BME280;61846;52.970;-3.168;2022-09-09T04:50:03;99456.70;;;19.08;46.21
73566;BME280;61846;52.970;-3.168;2022-09-09T04:52:27;99458.56;;;19.42;45.49
73566;BME280;61846;52.970;-3.168;2022-09-09T04:54:53;99461.88;;;19.52;45.03
73566;BME280;61846;52.970;-3.168;2022-09-09T04:57:18;99459.82;;;19.86;44.32
73566;BME280;61846;52.970;-3.168;2022-09-09T04:59:44;99463.03;;;19.62;44.27
73566;BME280;61846;52.970;-3.168;2022-09-09T05:02:09;99462.38;;;19.57;44.54
73566;BME280;61846;52.970;-3.168;2022-09-09T05:04:34;99464.81;;;19.61;44.75
73566;BME280;61846;52.970;-3.168;2022-09-09T05:07:00;99463.33;;;19.48;44.89
73566;BME280;61846;52.970;-3.168;2022-09-09T05:09:25;99466.29;;;19.55;45.23
73566;BME280;61846;52.970;-3.168;2022-09-09T05:11:51;99468.83;;;19.12;45.44
73566;BME280;61846;52.970;-3.168;2022-09-09T05:14:16;99470.08;;;19.66;44.82
73566;BME280;61846;52.970;-3.168;2022-09-09T05:16:42;99469.18;;;19.99;44.40
73566;BME280;61846;52.970;-3.168;2022-09-09T05:19:07;99475.31;;;19.69;44.49
73566;BME280;61846;52.970;-3.168;2022-09-09T05:21:32;99476.85;;;19.73;44.46
73566;BME280;61846;52.970;-3.168;2022-09-09T05:23:58;99479.04;;;19.41;44.55
73566;BME280;61846;52.970;-3.168;2022-09-09T05:26:23;99478.27;;;18.90;45.40
73566;BME280;61846;52.970;-3.168;2022-09-09T05:28:49;99479.19;;;19.59;44.64
73566;BME280;61846;52.970;-3.168;2022-09-09T05:31:15;99479.52;;;19.46;44.75
73566;BME280;61846;52.970;-3.168;2022-09-09T05:33:40;99479.01;;;19.98;43.99
73566;BME280;61846;52.970;-3.168;2022-09-09T05:36:06;99483.86;;;20.09;43.85
73566;BME280;61846;52.970;-3.168;2022-09-09T05:38:31;99483.81;;;20.16;43.94
73566;BME280;61846;52.970;-3.168;2022-09-09T05:40:56;99486.12;;;20.04;43.98
73566;BME280;61846;52.970;-3.168;2022-09-09T05:43:21;99488.95;;;19.86;43.92
73566;BME280;61846;52.970;-3.168;2022-09-09T05:45:47;99486.28;;;20.11;43.74
73566;BME280;61846;52.970;-3.168;2022-09-09T05:48:12;99488.48;;;20.01;43.45
73566;BME280;61846;52.970;-3.168;2022-09-09T05:50:37;99488.42;;;20.39;43.37
73566;BME280;61846;52.970;-3.168;2022-09-09T05:53:02;99494.73;;;19.46;43.98
73566;BME280;61846;52.970;-3.168;2022-09-09T05:55:28;99495.95;;;19.63;43.58
73566;BME280;61846;52.970;-3.168;2022-09-09T05:57:53;99500.77;;;19.50;43.64
73566;BME280;61846;52.970;-3.168;2022-09-09T06:00:19;99507.89;;;19.97;43.44
73566;BME280;61846;52.970;-3.168;2022-09-09T06:02:50;99507.34;;;19.99;42.88
73566;BME280;61846;52.970;-3.168;2022-09-09T06:05:10;99509.66;;;20.06;43.13
73566;BME280;61846;52.970;-3.168;2022-09-09T06:07:35;99512.99;;;20.64;42.45
73566;BME280;61846;52.970;-3.168;2022-09-09T06:10:01;99515.07;;;20.37;42.81
73566;BME280;61846;52.970;-3.168;2022-09-09T06:12:26;99514.73;;;20.22;43.22
73566;BME280;61846;52.970;-3.168;2022-09-09T06:14:51;99518.19;;;20.34;42.79
73566;BME280;61846;52.970;-3.168;2022-09-09T06:17:17;99520.01;;;20.41;42.40
73566;BME280;61846;52.970;-3.168;2022-09-09T06:19:42;99520.01;;;20.62;42.71
73566;BME280;61846;52.970;-3.168;2022-09-09T06:22:08;99520.65;;;20.10;42.55
73566;BME280;61846;52.970;-3.168;2022-09-09T06:24:33;99522.26;;;20.43;42.79
73566;BME280;61846;52.970;-3.168;2022-09-09T06:26:58;99529.63;;;20.28;42.83
73566;BME280;61846;52.970;-3.168;2022-09-09T06:29:24;99525.85;;;20.31;42.35
73566;BME280;61846;52.970;-3.168;2022-09-09T06:31:49;99531.24;;;20.29;42.58
73566;BME280;61846;52.970;-3.168;2022-09-09T06:34:15;99537.08;;;19.77;43.23
73566;BME280;61846;52.970;-3.168;2022-09-09T06:36:40;99541.36;;;20.33;42.88
73566;BME280;61846;52.970;-3.168;2022-09-09T06:39:06;99542.46;;;19.15;44.10
73566;BME280;61846;52.970;-3.168;2022-09-09T06:41:32;99545.29;;;19.89;43.28
73566;BME280;61846;52.970;-3.168;2022-09-09T06:43:56;99551.51;;;20.06;43.13
73566;BME280;61846;52.970;-3.168;2022-09-09T06:46:23;99552.49;;;19.65;43.34
73566;BME280;61846;52.970;-3.168;2022-09-09T06:48:47;99552.46;;;19.66;43.68
73566;BME280;61846;52.970;-3.168;2022-09-09T06:51:14;99555.55;;;19.79;43.52
73566;BME280;61846;52.970;-3.168;2022-09-09T06:53:39;99557.40;;;20.27;43.28
73566;BME280;61846;52.970;-3.168;2022-09-09T06:58:28;99555.73;;;20.53;42.30
73566;BME280;61846;52.970;-3.168;2022-09-09T07:01:01;99556.90;;;20.43;42.29
73566;BME280;61846;52.970;-3.168;2022-09-09T07:03:19;99560.95;;;20.51;42.21
73566;BME280;61846;52.970;-3.168;2022-09-09T07:05:53;99562.40;;;20.21;42.54
73566;BME280;61846;52.970;-3.168;2022-09-09T07:08:10;99563.92;;;20.45;42.10
73566;BME280;61846;52.970;-3.168;2022-09-09T07:10:35;99566.69;;;20.54;42.47
73566;BME280;61846;52.970;-3.168;2022-09-09T07:13:01;99570.35;;;20.14;42.51
73566;BME280;61846;52.970;-3.168;2022-09-09T07:15:26;99570.22;;;20.46;42.43
73566;BME280;61846;52.970;-3.168;2022-09-09T07:17:51;99573.76;;;20.69;41.75
73566;BME280;61846;52.970;-3.168;2022-09-09T07:20:17;99577.78;;;20.67;41.90
73566;BME280;61846;52.970;-3.168;2022-09-09T07:22:42;99583.29;;;20.26;41.31
73566;BME280;61846;52.970;-3.168;2022-09-09T07:25:08;99587.92;;;20.16;41.74
73566;BME280;61846;52.970;-3.168;2022-09-09T07:27:33;99586.47;;;20.08;41.79
73566;BME280;61846;52.970;-3.168;2022-09-09T07:29:58;99591.31;;;20.27;42.54
73566;BME280;61846;52.970;-3.168;2022-09-09T07:32:23;99594.17;;;20.37;42.99
73566;BME280;61846;52.970;-3.168;2022-09-09T07:34:49;99597.79;;;20.09;42.24
73566;BME280;61846;52.970;-3.168;2022-09-09T07:37:14;99599.20;;;20.81;42.32
73566;BME280;61846;52.970;-3.168;2022-09-09T07:39:40;99599.85;;;20.91;41.95
73566;BME280;61846;52.970;-3.168;2022-09-09T07:42:05;99599.52;;;20.34;41.92
73566;BME280;61846;52.970;-3.168;2022-09-09T07:44:30;99602.10;;;20.94;41.64
73566;BME280;61846;52.970;-3.168;2022-09-09T07:46:55;99603.26;;;20.31;41.54
73566;BME280;61846;52.970;-3.168;2022-09-09T07:49:21;99603.36;;;20.26;41.98
73566;BME280;61846;52.970;-3.168;2022-09-09T07:51:47;99600.26;;;20.65;41.71
73566;BME280;61846;52.970;-3.168;2022-09-09T07:54:13;99600.27;;;20.71;41.01
73566;BME280;61846;52.970;-3.168;2022-09-09T07:56:38;99603.87;;;20.74;41.69
73566;BME280;61846;52.970;-3.168;2022-09-09T07:59:03;99604.80;;;20.14;41.98
73566;BME280;61846;52.970;-3.168;2022-09-09T08:01:30;99604.79;;;20.70;41.05
73566;BME280;61846;52.970;-3.168;2022-09-09T08:03:55;99605.73;;;20.85;40.58
73566;BME280;61846;52.970;-3.168;2022-09-09T08:06:18;99608.36;;;21.21;40.96
73566;BME280;61846;52.970;-3.168;2022-09-09T08:08:44;99610.27;;;20.85;40.24
73566;BME280;61846;52.970;-3.168;2022-09-09T08:11:11;99613.69;;;21.31;40.75
73566;BME280;61846;52.970;-3.168;2022-09-09T08:13:35;99617.20;;;21.56;41.10
73566;BME280;61846;52.970;-3.168;2022-09-09T08:16:05;99619.82;;;21.22;41.36
73566;BME280;61846;52.970;-3.168;2022-09-09T08:18:26;99622.17;;;21.04;40.70
73566;BME280;61846;52.970;-3.168;2022-09-09T08:20:51;99621.23;;;21.62;41.07
73566;BME280;61846;52.970;-3.168;2022-09-09T08:23:16;99622.19;;;21.34;41.45
73566;BME280;61846;52.970;-3.168;2022-09-09T08:25:41;99626.70;;;21.50;39.80
73566;BME280;61846;52.970;-3.168;2022-09-09T08:28:07;99626.64;;;20.86;40.55
73566;BME280;61846;52.970;-3.168;2022-09-09T08:30:32;99631.58;;;21.68;40.57
73566;BME280;61846;52.970;-3.168;2022-09-09T08:32:57;99635.95;;;21.58;40.38
73566;BME280;61846;52.970;-3.168;2022-09-09T08:35:23;99639.82;;;21.41;40.16
73566;BME280;61846;52.970;-3.168;2022-09-09T08:37:48;99643.35;;;21.82;40.44
73566;BME280;61846;52.970;-3.168;2022-09-09T08:40:22;99647.04;;;21.72;40.00
73566;BME280;61846;52.970;-3.168;2022-09-09T08:42:40;99647.84;;;21.62;38.70
73566;BME280;61846;52.970;-3.168;2022-09-09T08:45:15;99647.82;;;21.81;39.76
73566;BME280;61846;52.970;-3.168;2022-09-09T08:47:37;99651.11;;;21.74;39.18
73566;BME280;61846;52.970;-3.168;2022-09-09T08:50:05;99655.31;;;21.49;38.72
73566;BME280;61846;52.970;-3.168;2022-09-09T08:52:23;99660.41;;;21.14;39.59
73566;BME280;61846;52.970;-3.168;2022-09-09T08:54:46;99663.78;;;21.22;39.87
73566;BME280;61846;52.970;-3.168;2022-09-09T08:57:14;99668.49;;;21.76;39.28
73566;BME280;61846;52.970;-3.168;2022-09-09T08:59:36;99668.96;;;21.49;38.88
73566;BME280;61846;52.970;-3.168;2022-09-09T09:02:08;99670.38;;;21.25;40.31
73566;BME280;61846;52.970;-3.168;2022-09-09T09:04:37;99675.37;;;21.37;39.48
73566;BME280;61846;52.970;-3.168;2022-09-09T09:06:59;99678.35;;;20.94;40.23
73566;BME280;61846;52.970;-3.168;2022-09-09T09:09:26;99680.42;;;20.01;41.94
73566;BME280;61846;52.970;-3.168;2022-09-09T09:11:47;99684.85;;;20.75;41.44
73566;BME280;61846;52.970;-3.168;2022-09-09T09:14:11;99690.80;;;19.96;41.94
73566;BME280;61846;52.970;-3.168;2022-09-09T09:16:39;99688.47;;;20.64;40.83
73566;BME280;61846;52.970;-3.168;2022-09-09T09:19:00;99694.42;;;19.14;43.59
73566;BME280;61846;52.970;-3.168;2022-09-09T09:21:32;99697.53;;;19.55;43.54
73566;BME280;61846;52.970;-3.168;2022-09-09T09:23:55;99698.14;;;19.60;43.79
73566;BME280;61846;52.970;-3.168;2022-09-09T09:26:15;99702.92;;;20.02;42.96
73566;BME280;61846;52.970;-3.168;2022-09-09T09:28:41;99708.78;;;20.06;43.23
73566;BME280;61846;52.970;-3.168;2022-09-09T09:31:09;99709.89;;;19.96;43.21
73566;BME280;61846;52.970;-3.168;2022-09-09T09:33:38;99711.61;;;19.90;43.01
73566;BME280;61846;52.970;-3.168;2022-09-09T09:35:57;99713.99;;;20.23;43.04
73566;BME280;61846;52.970;-3.168;2022-09-09T09:38:24;99718.28;;;19.62;45.01
73566;BME280;61846;52.970;-3.168;2022-09-09T09:40:50;99724.81;;;19.70;42.89
73566;BME280;61846;52.970;-3.168;2022-09-09T09:43:20;99726.04;;;19.60;44.36
73566;BME280;61846;52.970;-3.168;2022-09-09T09:45:42;99726.05;;;20.56;43.85
73566;BME280;61846;52.970;-3.168;2022-09-09T09:48:05;99727.50;;;20.62;42.55
73566;BME280;61846;52.970;-3.168;2022-09-09T09:50:30;99733.95;;;21.01;42.00
73566;BME280;61846;52.970;-3.168;2022-09-09T09:52:56;99741.64;;;20.51;42.21
73566;BME280;61846;52.970;-3.168;2022-09-09T09:55:20;99742.68;;;20.80;41.30
73566;BME280;61846;52.970;-3.168;2022-09-09T09:57:45;99744.07;;;20.37;41.69
73566;BME280;61846;52.970;-3.168;2022-09-09T10:00:14;99742.05;;;20.47;42.01
73566;BME280;61846;52.970;-3.168;2022-09-09T10:02:39;99743.77;;;20.90;40.33
73566;BME280;61846;52.970;-3.168;2022-09-09T10:05:03;99742.84;;;20.93;41.39
73566;BME280;61846;52.970;-3.168;2022-09-09T10:07:26;99741.51;;;20.86;41.93
73566;BME280;61846;52.970;-3.168;2022-09-09T10:09:55;99739.94;;;21.08;41.83
73566;BME280;61846;52.970;-3.168;2022-09-09T10:12:26;99739.87;;;21.14;40.10
73566;BME280;61846;52.970;-3.168;2022-09-09T10:14:49;99737.28;;;21.20;39.74
73566;BME280;61846;52.970;-3.168;2022-09-09T10:17:16;99737.93;;;21.89;43.81
73566;BME280;61846;52.970;-3.168;2022-09-09T10:19:34;99735.82;;;21.48;41.23
73566;BME280;61846;52.970;-3.168;2022-09-09T10:22:10;99736.18;;;22.10;42.89
73566;BME280;61846;52.970;-3.168;2022-09-09T10:24:36;99737.90;;;22.52;40.12
73566;BME280;61846;52.970;-3.168;2022-09-09T10:26:55;99740.02;;;22.30;39.80
73566;BME280;61846;52.970;-3.168;2022-09-09T10:29:29;99740.11;;;22.79;38.16
73566;BME280;61846;52.970;-3.168;2022-09-09T10:31:47;99740.16;;;23.52;36.83
73566;BME280;61846;52.970;-3.168;2022-09-09T10:34:12;99742.14;;;23.72;37.28
73566;BME280;61846;52.970;-3.168;2022-09-09T10:36:30;99744.78;;;22.23;38.80
73566;BME280;61846;52.970;-3.168;2022-09-09T10:39:00;99748.37;;;22.72;38.70
73566;BME280;61846;52.970;-3.168;2022-09-09T10:41:33;99747.47;;;23.61;38.04
73566;BME280;61846;52.970;-3.168;2022-09-09T10:44:01;99749.87;;;23.70;37.14
73566;BME280;61846;52.970;-3.168;2022-09-09T10:46:18;99747.80;;;24.35;35.94
73566;BME280;61846;52.970;-3.168;2022-09-09T10:48:50;99749.91;;;23.64;38.06
73566;BME280;61846;52.970;-3.168;2022-09-09T10:51:17;99751.30;;;24.46;35.40
73566;BME280;61846;52.970;-3.168;2022-09-09T10:53:36;99753.80;;;24.43;36.08
73566;BME280;61846;52.970;-3.168;2022-09-09T10:55:57;99754.78;;;24.57;35.35
73566;BME280;61846;52.970;-3.168;2022-09-09T10:58:23;99754.74;;;24.68;35.40
73566;BME280;61846;52.970;-3.168;2022-09-09T11:00:46;99755.99;;;24.56;34.85
73566;BME280;61846;52.970;-3.168;2022-09-09T11:03:17;99759.03;;;24.61;36.13
73566;BME280;61846;52.970;-3.168;2022-09-09T11:05:41;99765.55;;;24.74;35.46
73566;BME280;61846;52.970;-3.168;2022-09-09T11:08:04;99767.84;;;24.13;37.16
73566;BME280;61846;52.970;-3.168;2022-09-09T11:10:33;99774.98;;;24.07;35.22
73566;BME280;61846;52.970;-3.168;2022-09-09T11:12:56;99773.69;;;24.48;36.44
73566;BME280;61846;52.970;-3.168;2022-09-09T11:15:21;99776.85;;;24.07;36.47
73566;BME280;61846;52.970;-3.168;2022-09-09T11:17:46;99772.79;;;24.54;34.36
73566;BME280;61846;52.970;-3.168;2022-09-09T11:20:12;99768.95;;;23.77;36.54
73566;BME280;61846;52.970;-3.168;2022-09-09T11:22:35;99768.22;;;23.93;34.59
73566;BME280;61846;52.970;-3.168;2022-09-09T11:25:01;99767.49;;;24.48;33.05
73566;BME280;61846;52.970;-3.168;2022-09-09T11:27:27;99766.93;;;24.74;35.77
73566;BME280;61846;52.970;-3.168;2022-09-09T11:32:28;99766.17;;;25.03;35.61
73566;BME280;61846;52.970;-3.168;2022-09-09T11:34:50;99765.79;;;25.61;34.50
73566;BME280;61846;52.970;-3.168;2022-09-09T11:37:17;99765.70;;;25.11;33.40
73566;BME280;61846;52.970;-3.168;2022-09-09T11:39:42;99768.87;;;25.43;32.31
73566;BME280;61846;52.970;-3.168;2022-09-09T11:42:05;99773.64;;;25.18;34.22
73566;BME280;61846;52.970;-3.168;2022-09-09T11:44:27;99770.85;;;26.18;33.48
73566;BME280;61846;52.970;-3.168;2022-09-09T11:46:50;99778.40;;;25.96;33.81
73566;BME280;61846;52.970;-3.168;2022-09-09T11:51:37;99778.07;;;26.57;31.35
73566;BME280;61846;52.970;-3.168;2022-09-09T11:56:30;99783.76;;;26.49;30.98
73566;BME280;61846;52.970;-3.168;2022-09-09T11:58:56;99783.96;;;26.09;30.91
73566;BME280;61846;52.970;-3.168;2022-09-09T12:01:29;99783.18;;;26.19;31.78
73566;BME280;61846;52.970;-3.168;2022-09-09T12:03:45;99784.97;;;25.90;31.57
73566;BME280;61846;52.970;-3.168;2022-09-09T12:06:13;99788.86;;;25.66;32.53
73566;BME280;61846;52.970;-3.168;2022-09-09T12:08:35;99794.78;;;24.88;34.08
73566;BME280;61846;52.970;-3.168;2022-09-09T12:10:59;99799.72;;;24.82;34.76
73566;BME280;61846;52.970;-3.168;2022-09-09T12:13:26;99804.06;;;25.35;35.07
73566;BME280;61846;52.970;-3.168;2022-09-09T12:15:52;99806.01;;;24.22;34.97
73566;BME280;61846;52.970;-3.168;2022-09-09T12:18:21;99804.80;;;24.26;35.69
73566;BME280;61846;52.970;-3.168;2022-09-09T12:20:50;99800.33;;;24.87;36.27
73566;BME280;61846;52.970;-3.168;2022-09-09T12:23:20;99800.76;;;23.67;36.51
73566;BME280;61846;52.970;-3.168;2022-09-09T12:25:39;99804.84;;;23.73;36.32
73566;BME280;61846;52.970;-3.168;2022-09-09T12:28:05;99804.02;;;24.31;36.68
73566;BME280;61846;52.970;-3.168;2022-09-09T12:30:22;99805.45;;;24.36;36.09
73566;BME280;61846;52.970;-3.168;2022-09-09T12:32:47;99806.94;;;24.08;37.20
73566;BME280;61846;52.970;-3.168;2022-09-09T12:35:19;99809.54;;;24.72;35.62
73566;BME280;61846;52.970;-3.168;2022-09-09T12:37:40;99813.95;;;24.86;35.65
73566;BME280;61846;52.970;-3.168;2022-09-09T12:40:05;99816.11;;;23.68;35.18
73566;BME280;61846;52.970;-3.168;2022-09-09T12:42:29;99818.47;;;24.17;35.02
73566;BME280;61846;52.970;-3.168;2022-09-09T12:44:56;99823.68;;;24.46;35.36
73566;BME280;61846;52.970;-3.168;2022-09-09T12:47:23;99828.35;;;24.57;34.12
73566;BME280;61846;52.970;-3.168;2022-09-09T12:49:45;99830.90;;;24.64;35.03